sensor_id;sensor_type;location;lat;lon;timestamp;P1;durP1;ratioP1;P2;durP2;ratioP2
20695;SDS011;10507;52.754;13.040;2022-07-06T00:01:17;2.65;;;1.30;;
20695;SDS011;10507;52.754;13.040;2022-07-06T00:03:45;1.83;;;0.98;;
20695;SDS011;10507;52.754;13.040;2022-07-06T00:06:20;2.08;;;1.20;;
20695;SDS011;10507;52.754;13.040;2022-07-06T00:08:50;4.05;;;1.50;;
20695;SDS011;10507;52.754;13.040;2022-07-06T00:11:18;1.88;;;1.30;;
20695;SDS011;10507;52.754;13.040;2022-07-06T00:13:46;4.35;;;1.33;;
20695;SDS011;10507;52.754;13.040;2022-07-06T00:16:14;12.13;;;1.35;;
20695;SDS011;10507;52.754;13.040;2022-07-06T00:18:43;2.25;;;1.15;;
20695;SDS011;10507;52.754;13.040;2022-07-06T00:21:11;3.60;;;1.30;;
20695;SDS011;10507;52.754;13.040;2022-07-06T00:23:39;1.45;;;0.90;;
20695;SDS011;10507;52.754;13.040;2022-07-06T00:26:10;2.92;;;1.30;;
20695;SDS011;10507;52.754;13.040;2022-07-06T00:28:38;3.15;;;1.00;;
20695;SDS011;10507;52.754;13.040;2022-07-06T00:31:12;2.35;;;1.00;;
20695;SDS011;10507;52.754;13.040;2022-07-06T00:33:41;3.30;;;0.93;;
20695;SDS011;10507;52.754;13.040;2022-07-06T00:36:09;3.33;;;1.05;;
20695;SDS011;10507;52.754;13.040;2022-07-06T00:38:38;1.52;;;0.95;;
20695;SDS011;10507;52.754;13.040;2022-07-06T00:41:06;2.47;;;1.00;;
20695;SDS011;10507;52.754;13.040;2022-07-06T00:43:48;4.93;;;0.90;;
20695;SDS011;10507;52.754;13.040;2022-07-06T00:46:18;3.88;;;1.00;;
20695;SDS011;10507;52.754;13.040;2022-07-06T00:48:46;2.47;;;1.10;;
20695;SDS011;10507;52.754;13.040;2022-07-06T00:51:14;2.75;;;1.42;;
20695;SDS011;10507;52.754;13.040;2022-07-06T00:53:43;3.70;;;1.25;;
20695;SDS011;10507;52.754;13.040;2022-07-06T00:56:12;1.65;;;1.00;;
20695;SDS011;10507;52.754;13.040;2022-07-06T00:58:40;3.13;;;1.00;;
20695;SDS011;10507;52.754;13.040;2022-07-06T01:01:09;1.52;;;1.00;;
20695;SDS011;10507;52.754;13.040;2022-07-06T01:03:40;3.38;;;1.33;;
20695;SDS011;10507;52.754;13.040;2022-07-06T01:06:08;5.03;;;1.10;;
20695;SDS011;10507;52.754;13.040;2022-07-06T01:08:39;1.10;;;0.80;;
20695;SDS011;10507;52.754;13.040;2022-07-06T01:11:10;5.00;;;1.00;;
20695;SDS011;10507;52.754;13.040;2022-07-06T01:13:44;3.05;;;1.38;;
20695;SDS011;10507;52.754;13.040;2022-07-06T01:16:14;2.50;;;1.10;;
20695;SDS011;10507;52.754;13.040;2022-07-06T01:18:45;2.83;;;1.05;;
20695;SDS011;10507;52.754;13.040;2022-07-06T01:21:17;2.63;;;1.33;;
20695;SDS011;10507;52.754;13.040;2022-07-06T01:23:46;1.48;;;0.90;;
20695;SDS011;10507;52.754;13.040;2022-07-06T01:26:18;2.00;;;0.93;;
20695;SDS011;10507;52.754;13.040;2022-07-06T01:28:51;4.22;;;1.42;;
20695;SDS011;10507;52.754;13.040;2022-07-06T01:31:20;1.92;;;1.05;;
20695;SDS011;10507;52.754;13.040;2022-07-06T01:33:50;4.65;;;1.42;;
20695;SDS011;10507;52.754;13.040;2022-07-06T01:36:21;4.72;;;1.40;;
20695;SDS011;10507;52.754;13.040;2022-07-06T01:38:53;2.88;;;1.10;;
20695;SDS011;10507;52.754;13.040;2022-07-06T01:41:24;1.67;;;1.13;;
20695;SDS011;10507;52.754;13.040;2022-07-06T01:43:54;3.60;;;1.02;;
20695;SDS011;10507;52.754;13.040;2022-07-06T01:46:23;2.50;;;1.15;;
20695;SDS011;10507;52.754;13.040;2022-07-06T01:48:55;5.15;;;1.10;;
20695;SDS011;10507;52.754;13.040;2022-07-06T01:51:26;1.55;;;0.98;;
20695;SDS011;10507;52.754;13.040;2022-07-06T01:53:55;1.55;;;1.17;;
20695;SDS011;10507;52.754;13.040;2022-07-06T01:56:23;2.85;;;0.93;;
20695;SDS011;10507;52.754;13.040;2022-07-06T01:58:51;5.07;;;1.10;;
20695;SDS011;10507;52.754;13.040;2022-07-06T02:01:22;1.42;;;1.02;;
20695;SDS011;10507;52.754;13.040;2022-07-06T02:03:52;1.73;;;0.90;;
20695;SDS011;10507;52.754;13.040;2022-07-06T02:06:20;4.88;;;1.30;;
20695;SDS011;10507;52.754;13.040;2022-07-06T02:08:55;5.45;;;1.10;;
20695;SDS011;10507;52.754;13.040;2022-07-06T02:11:24;5.38;;;1.23;;
20695;SDS011;10507;52.754;13.040;2022-07-06T02:13:57;2.47;;;1.00;;
20695;SDS011;10507;52.754;13.040;2022-07-06T02:16:28;5.35;;;1.10;;
20695;SDS011;10507;52.754;13.040;2022-07-06T02:18:59;5.00;;;1.27;;
20695;SDS011;10507;52.754;13.040;2022-07-06T02:21:30;2.72;;;0.90;;
20695;SDS011;10507;52.754;13.040;2022-07-06T02:24:12;3.63;;;1.20;;
20695;SDS011;10507;52.754;13.040;2022-07-06T02:26:40;5.90;;;1.42;;
20695;SDS011;10507;52.754;13.040;2022-07-06T02:29:08;4.15;;;1.20;;
20695;SDS011;10507;52.754;13.040;2022-07-06T02:31:39;4.53;;;1.05;;
20695;SDS011;10507;52.754;13.040;2022-07-06T02:34:13;5.53;;;1.20;;
20695;SDS011;10507;52.754;13.040;2022-07-06T02:36:42;4.82;;;1.50;;
20695;SDS011;10507;52.754;13.040;2022-07-06T02:39:18;3.55;;;1.10;;
20695;SDS011;10507;52.754;13.040;2022-07-06T02:41:52;2.95;;;1.10;;
20695;SDS011;10507;52.754;13.040;2022-07-06T02:44:25;8.30;;;1.52;;
20695;SDS011;10507;52.754;13.040;2022-07-06T02:46:53;4.22;;;1.02;;
20695;SDS011;10507;52.754;13.040;2022-07-06T02:49:21;1.35;;;1.08;;
20695;SDS011;10507;52.754;13.040;2022-07-06T02:51:49;2.33;;;1.00;;
20695;SDS011;10507;52.754;13.040;2022-07-06T02:54:18;3.15;;;1.33;;
20695;SDS011;10507;52.754;13.040;2022-07-06T02:56:48;5.20;;;1.40;;
20695;SDS011;10507;52.754;13.040;2022-07-06T02:59:23;3.78;;;1.20;;
20695;SDS011;10507;52.754;13.040;2022-07-06T03:01:50;4.78;;;1.33;;
20695;SDS011;10507;52.754;13.040;2022-07-06T03:04:19;5.70;;;1.45;;
20695;SDS011;10507;52.754;13.040;2022-07-06T03:06:51;2.72;;;1.10;;
20695;SDS011;10507;52.754;13.040;2022-07-06T03:09:23;3.67;;;1.25;;
20695;SDS011;10507;52.754;13.040;2022-07-06T03:11:52;3.17;;;1.20;;
20695;SDS011;10507;52.754;13.040;2022-07-06T03:14:19;4.03;;;1.20;;
20695;SDS011;10507;52.754;13.040;2022-07-06T03:16:48;5.13;;;1.40;;
20695;SDS011;10507;52.754;13.040;2022-07-06T03:19:21;3.40;;;1.10;;
20695;SDS011;10507;52.754;13.040;2022-07-06T03:21:49;6.20;;;1.30;;
20695;SDS011;10507;52.754;13.040;2022-07-06T03:24:17;5.70;;;1.30;;
20695;SDS011;10507;52.754;13.040;2022-07-06T03:26:48;2.72;;;1.38;;
20695;SDS011;10507;52.754;13.040;2022-07-06T03:29:19;3.53;;;1.08;;
20695;SDS011;10507;52.754;13.040;2022-07-06T03:31:49;8.65;;;1.50;;
20695;SDS011;10507;52.754;13.040;2022-07-06T03:34:17;3.97;;;1.27;;
20695;SDS011;10507;52.754;13.040;2022-07-06T03:36:45;4.65;;;1.40;;
20695;SDS011;10507;52.754;13.040;2022-07-06T03:39:14;3.53;;;1.30;;
20695;SDS011;10507;52.754;13.040;2022-07-06T03:41:42;3.47;;;1.48;;
20695;SDS011;10507;52.754;13.040;2022-07-06T03:44:15;4.88;;;1.20;;
20695;SDS011;10507;52.754;13.040;2022-07-06T03:46:50;2.75;;;1.05;;
20695;SDS011;10507;52.754;13.040;2022-07-06T03:49:26;4.78;;;1.20;;
20695;SDS011;10507;52.754;13.040;2022-07-06T03:51:59;3.88;;;1.63;;
20695;SDS011;10507;52.754;13.040;2022-07-06T03:54:33;4.85;;;1.15;;
20695;SDS011;10507;52.754;13.040;2022-07-06T03:57:03;5.55;;;1.60;;
20695;SDS011;10507;52.754;13.040;2022-07-06T03:59:36;4.18;;;1.48;;
20695;SDS011;10507;52.754;13.040;2022-07-06T04:02:07;5.22;;;2.03;;
20695;SDS011;10507;52.754;13.040;2022-07-06T04:04:43;3.75;;;1.67;;
20695;SDS011;10507;52.754;13.040;2022-07-06T04:07:14;4.82;;;1.60;;
20695;SDS011;10507;52.754;13.040;2022-07-06T04:09:44;6.00;;;1.40;;
20695;SDS011;10507;52.754;13.040;2022-07-06T04:12:18;4.10;;;1.20;;
20695;SDS011;10507;52.754;13.040;2022-07-06T04:14:48;5.35;;;1.88;;
20695;SDS011;10507;52.754;13.040;2022-07-06T04:17:16;2.85;;;1.50;;
20695;SDS011;10507;52.754;13.040;2022-07-06T04:20:02;6.72;;;1.55;;
20695;SDS011;10507;52.754;13.040;2022-07-06T04:22:36;4.53;;;1.67;;
20695;SDS011;10507;52.754;13.040;2022-07-06T04:25:06;5.53;;;1.67;;
20695;SDS011;10507;52.754;13.040;2022-07-06T04:27:36;4.40;;;1.55;;
20695;SDS011;10507;52.754;13.040;2022-07-06T04:30:06;3.17;;;1.23;;
20695;SDS011;10507;52.754;13.040;2022-07-06T04:32:37;5.85;;;1.67;;
20695;SDS011;10507;52.754;13.040;2022-07-06T04:35:06;6.57;;;1.90;;
20695;SDS011;10507;52.754;13.040;2022-07-06T04:37:37;3.53;;;1.23;;
20695;SDS011;10507;52.754;13.040;2022-07-06T04:40:11;5.45;;;1.40;;
20695;SDS011;10507;52.754;13.040;2022-07-06T04:42:46;2.92;;;1.45;;
20695;SDS011;10507;52.754;13.040;2022-07-06T04:45:19;4.70;;;1.27;;
20695;SDS011;10507;52.754;13.040;2022-07-06T04:47:54;5.80;;;1.20;;
20695;SDS011;10507;52.754;13.040;2022-07-06T04:50:22;4.88;;;1.17;;
20695;SDS011;10507;52.754;13.040;2022-07-06T04:52:50;5.40;;;1.95;;
20695;SDS011;10507;52.754;13.040;2022-07-06T04:55:18;3.97;;;1.20;;
20695;SDS011;10507;52.754;13.040;2022-07-06T04:57:46;4.45;;;0.95;;
20695;SDS011;10507;52.754;13.040;2022-07-06T05:00:20;7.65;;;1.30;;
20695;SDS011;10507;52.754;13.040;2022-07-06T05:02:48;5.07;;;0.98;;
20695;SDS011;10507;52.754;13.040;2022-07-06T05:05:18;4.32;;;0.93;;
20695;SDS011;10507;52.754;13.040;2022-07-06T05:07:48;6.57;;;1.23;;
20695;SDS011;10507;52.754;13.040;2022-07-06T05:10:18;3.80;;;0.70;;
20695;SDS011;10507;52.754;13.040;2022-07-06T05:12:46;3.90;;;1.20;;
20695;SDS011;10507;52.754;13.040;2022-07-06T05:15:14;3.33;;;0.75;;
20695;SDS011;10507;52.754;13.040;2022-07-06T05:17:44;1.77;;;0.60;;
20695;SDS011;10507;52.754;13.040;2022-07-06T05:20:12;3.08;;;1.02;;
20695;SDS011;10507;52.754;13.040;2022-07-06T05:22:41;4.38;;;1.10;;
20695;SDS011;10507;52.754;13.040;2022-07-06T05:25:12;2.65;;;0.98;;
20695;SDS011;10507;52.754;13.040;2022-07-06T05:27:40;2.22;;;0.70;;
20695;SDS011;10507;52.754;13.040;2022-07-06T05:30:11;2.25;;;0.68;;
20695;SDS011;10507;52.754;13.040;2022-07-06T05:32:41;4.63;;;0.90;;
20695;SDS011;10507;52.754;13.040;2022-07-06T05:35:13;3.55;;;0.80;;
20695;SDS011;10507;52.754;13.040;2022-07-06T05:38:03;5.25;;;1.20;;
20695;SDS011;10507;52.754;13.040;2022-07-06T05:40:31;4.25;;;0.70;;
20695;SDS011;10507;52.754;13.040;2022-07-06T05:43:04;3.92;;;0.88;;
20695;SDS011;10507;52.754;13.040;2022-07-06T05:45:32;3.38;;;0.88;;
20695;SDS011;10507;52.754;13.040;2022-07-06T05:48:00;5.22;;;0.82;;
20695;SDS011;10507;52.754;13.040;2022-07-06T05:50:50;4.25;;;0.90;;
20695;SDS011;10507;52.754;13.040;2022-07-06T05:53:21;2.10;;;0.70;;
20695;SDS011;10507;52.754;13.040;2022-07-06T05:55:55;4.80;;;0.98;;
20695;SDS011;10507;52.754;13.040;2022-07-06T05:58:27;3.72;;;1.00;;
20695;SDS011;10507;52.754;13.040;2022-07-06T06:00:57;4.38;;;1.23;;
20695;SDS011;10507;52.754;13.040;2022-07-06T06:03:29;3.22;;;0.60;;
20695;SDS011;10507;52.754;13.040;2022-07-06T06:06:13;4.40;;;0.90;;
20695;SDS011;10507;52.754;13.040;2022-07-06T06:08:45;3.65;;;0.73;;
20695;SDS011;10507;52.754;13.040;2022-07-06T06:11:13;3.40;;;0.73;;
20695;SDS011;10507;52.754;13.040;2022-07-06T06:13:43;4.82;;;0.88;;
20695;SDS011;10507;52.754;13.040;2022-07-06T06:16:16;2.38;;;0.70;;
20695;SDS011;10507;52.754;13.040;2022-07-06T06:18:58;2.88;;;0.70;;
20695;SDS011;10507;52.754;13.040;2022-07-06T06:21:34;4.35;;;0.85;;
20695;SDS011;10507;52.754;13.040;2022-07-06T06:24:05;3.45;;;0.80;;
20695;SDS011;10507;52.754;13.040;2022-07-06T06:26:42;4.25;;;0.77;;
20695;SDS011;10507;52.754;13.040;2022-07-06T06:29:15;2.53;;;0.95;;
20695;SDS011;10507;52.754;13.040;2022-07-06T06:31:43;2.47;;;0.80;;
20695;SDS011;10507;52.754;13.040;2022-07-06T06:34:13;3.55;;;0.88;;
20695;SDS011;10507;52.754;13.040;2022-07-06T06:36:51;2.88;;;0.60;;
20695;SDS011;10507;52.754;13.040;2022-07-06T06:39:27;3.88;;;1.27;;
20695;SDS011;10507;52.754;13.040;2022-07-06T06:41:57;3.90;;;0.88;;
20695;SDS011;10507;52.754;13.040;2022-07-06T06:44:33;3.05;;;0.85;;
20695;SDS011;10507;52.754;13.040;2022-07-06T06:47:04;4.28;;;0.65;;
20695;SDS011;10507;52.754;13.040;2022-07-06T06:49:38;3.78;;;1.00;;
20695;SDS011;10507;52.754;13.040;2022-07-06T06:52:20;4.65;;;1.10;;
20695;SDS011;10507;52.754;13.040;2022-07-06T06:55:06;6.25;;;1.05;;
20695;SDS011;10507;52.754;13.040;2022-07-06T06:57:39;2.80;;;0.77;;
20695;SDS011;10507;52.754;13.040;2022-07-06T07:00:12;5.65;;;1.13;;
20695;SDS011;10507;52.754;13.040;2022-07-06T07:02:44;2.85;;;0.60;;
20695;SDS011;10507;52.754;13.040;2022-07-06T07:05:13;3.90;;;0.80;;
20695;SDS011;10507;52.754;13.040;2022-07-06T07:07:45;5.63;;;1.13;;
20695;SDS011;10507;52.754;13.040;2022-07-06T07:10:16;2.97;;;0.95;;
20695;SDS011;10507;52.754;13.040;2022-07-06T07:12:45;6.07;;;1.42;;
20695;SDS011;10507;52.754;13.040;2022-07-06T07:15:20;4.05;;;0.90;;
20695;SDS011;10507;52.754;13.040;2022-07-06T07:17:54;3.55;;;0.88;;
20695;SDS011;10507;52.754;13.040;2022-07-06T07:20:27;3.58;;;0.70;;
20695;SDS011;10507;52.754;13.040;2022-07-06T07:22:58;4.22;;;0.77;;
20695;SDS011;10507;52.754;13.040;2022-07-06T07:25:31;3.58;;;0.80;;
20695;SDS011;10507;52.754;13.040;2022-07-06T07:28:00;4.07;;;0.80;;
20695;SDS011;10507;52.754;13.040;2022-07-06T07:30:31;3.65;;;0.85;;
20695;SDS011;10507;52.754;13.040;2022-07-06T07:33:01;3.42;;;0.90;;
20695;SDS011;10507;52.754;13.040;2022-07-06T07:35:29;3.38;;;0.68;;
20695;SDS011;10507;52.754;13.040;2022-07-06T07:38:02;3.28;;;0.90;;
20695;SDS011;10507;52.754;13.040;2022-07-06T07:40:37;3.75;;;0.77;;
20695;SDS011;10507;52.754;13.040;2022-07-06T07:43:06;3.28;;;0.90;;
20695;SDS011;10507;52.754;13.040;2022-07-06T07:45:36;4.32;;;0.88;;
20695;SDS011;10507;52.754;13.040;2022-07-06T07:48:10;4.15;;;0.82;;
20695;SDS011;10507;52.754;13.040;2022-07-06T07:50:43;2.67;;;0.90;;
20695;SDS011;10507;52.754;13.040;2022-07-06T07:53:17;2.53;;;0.65;;
20695;SDS011;10507;52.754;13.040;2022-07-06T07:55:47;3.63;;;0.63;;
20695;SDS011;10507;52.754;13.040;2022-07-06T07:58:18;2.15;;;0.50;;
20695;SDS011;10507;52.754;13.040;2022-07-06T08:00:49;2.30;;;0.73;;
20695;SDS011;10507;52.754;13.040;2022-07-06T08:03:24;5.13;;;1.48;;
20695;SDS011;10507;52.754;13.040;2022-07-06T08:05:55;3.55;;;1.25;;
20695;SDS011;10507;52.754;13.040;2022-07-06T08:08:27;6.60;;;0.90;;
20695;SDS011;10507;52.754;13.040;2022-07-06T08:10:58;3.53;;;0.80;;
20695;SDS011;10507;52.754;13.040;2022-07-06T08:13:45;1.33;;;0.60;;
20695;SDS011;10507;52.754;13.040;2022-07-06T08:16:18;1.83;;;0.70;;
20695;SDS011;10507;52.754;13.040;2022-07-06T08:18:47;2.15;;;0.43;;
20695;SDS011;10507;52.754;13.040;2022-07-06T08:21:16;3.90;;;0.57;;
20695;SDS011;10507;52.754;13.040;2022-07-06T08:23:54;2.72;;;0.50;;
20695;SDS011;10507;52.754;13.040;2022-07-06T08:26:29;3.00;;;0.60;;
20695;SDS011;10507;52.754;13.040;2022-07-06T08:28:58;1.58;;;0.47;;
20695;SDS011;10507;52.754;13.040;2022-07-06T08:31:32;1.95;;;0.40;;
20695;SDS011;10507;52.754;13.040;2022-07-06T08:34:24;1.08;;;0.60;;
20695;SDS011;10507;52.754;13.040;2022-07-06T08:36:59;1.08;;;0.50;;
20695;SDS011;10507;52.754;13.040;2022-07-06T08:39:30;2.92;;;0.60;;
20695;SDS011;10507;52.754;13.040;2022-07-06T08:41:59;1.80;;;0.40;;
20695;SDS011;10507;52.754;13.040;2022-07-06T08:44:29;2.95;;;0.45;;
20695;SDS011;10507;52.754;13.040;2022-07-06T08:46:58;2.28;;;0.50;;
20695;SDS011;10507;52.754;13.040;2022-07-06T08:49:33;3.00;;;0.40;;
20695;SDS011;10507;52.754;13.040;2022-07-06T08:52:06;0.40;;;0.30;;
20695;SDS011;10507;52.754;13.040;2022-07-06T08:54:39;2.53;;;0.40;;
20695;SDS011;10507;52.754;13.040;2022-07-06T08:57:09;1.70;;;0.70;;
20695;SDS011;10507;52.754;13.040;2022-07-06T08:59:38;2.13;;;0.43;;
20695;SDS011;10507;52.754;13.040;2022-07-06T09:02:09;2.42;;;0.57;;
20695;SDS011;10507;52.754;13.040;2022-07-06T09:04:42;0.70;;;0.40;;
20695;SDS011;10507;52.754;13.040;2022-07-06T09:07:17;2.92;;;0.60;;
20695;SDS011;10507;52.754;13.040;2022-07-06T09:10:27;1.63;;;0.52;;
20695;SDS011;10507;52.754;13.040;2022-07-06T09:13:03;1.48;;;0.50;;
20695;SDS011;10507;52.754;13.040;2022-07-06T09:15:48;2.95;;;0.70;;
20695;SDS011;10507;52.754;13.040;2022-07-06T09:18:53;3.28;;;0.60;;
20695;SDS011;10507;52.754;13.040;2022-07-06T09:21:27;1.25;;;0.55;;
20695;SDS011;10507;52.754;13.040;2022-07-06T09:24:14;2.20;;;0.90;;
20695;SDS011;10507;52.754;13.040;2022-07-06T09:29:34;1.58;;;0.60;;
20695;SDS011;10507;52.754;13.040;2022-07-06T09:32:07;1.38;;;0.45;;
20695;SDS011;10507;52.754;13.040;2022-07-06T09:34:40;2.13;;;0.63;;
20695;SDS011;10507;52.754;13.040;2022-07-06T09:37:13;1.63;;;0.70;;
20695;SDS011;10507;52.754;13.040;2022-07-06T09:39:53;4.13;;;0.70;;
20695;SDS011;10507;52.754;13.040;2022-07-06T09:42:31;5.28;;;0.60;;
20695;SDS011;10507;52.754;13.040;2022-07-06T09:45:06;1.35;;;0.40;;
20695;SDS011;10507;52.754;13.040;2022-07-06T09:47:53;3.42;;;0.60;;
20695;SDS011;10507;52.754;13.040;2022-07-06T09:50:31;2.03;;;0.50;;
20695;SDS011;10507;52.754;13.040;2022-07-06T09:53:16;3.22;;;0.50;;
20695;SDS011;10507;52.754;13.040;2022-07-06T09:55:51;7.10;;;0.50;;
20695;SDS011;10507;52.754;13.040;2022-07-06T09:58:34;4.93;;;0.55;;
20695;SDS011;10507;52.754;13.040;2022-07-06T10:01:31;2.38;;;0.32;;
20695;SDS011;10507;52.754;13.040;2022-07-06T10:04:10;1.88;;;0.40;;
20695;SDS011;10507;52.754;13.040;2022-07-06T10:06:49;2.22;;;0.43;;
20695;SDS011;10507;52.754;13.040;2022-07-06T10:09:29;3.22;;;0.50;;
20695;SDS011;10507;52.754;13.040;2022-07-06T10:12:02;2.08;;;0.63;;
20695;SDS011;10507;52.754;13.040;2022-07-06T10:14:38;1.02;;;0.30;;
20695;SDS011;10507;52.754;13.040;2022-07-06T10:17:16;1.80;;;0.30;;
20695;SDS011;10507;52.754;13.040;2022-07-06T10:19:47;1.48;;;0.30;;
20695;SDS011;10507;52.754;13.040;2022-07-06T10:22:19;1.42;;;0.30;;
20695;SDS011;10507;52.754;13.040;2022-07-06T10:24:49;1.92;;;0.60;;
20695;SDS011;10507;52.754;13.040;2022-07-06T10:27:20;4.30;;;0.55;;
20695;SDS011;10507;52.754;13.040;2022-07-06T10:29:55;1.05;;;0.40;;
20695;SDS011;10507;52.754;13.040;2022-07-06T10:32:27;3.55;;;0.60;;
20695;SDS011;10507;52.754;13.040;2022-07-06T10:34:59;3.35;;;0.75;;
20695;SDS011;10507;52.754;13.040;2022-07-06T10:37:31;1.55;;;0.40;;
20695;SDS011;10507;52.754;13.040;2022-07-06T10:40:17;1.70;;;0.40;;
20695;SDS011;10507;52.754;13.040;2022-07-06T10:43:20;4.80;;;0.60;;
20695;SDS011;10507;52.754;13.040;2022-07-06T10:45:52;2.65;;;0.85;;
20695;SDS011;10507;52.754;13.040;2022-07-06T10:48:25;1.23;;;0.57;;
20695;SDS011;10507;52.754;13.040;2022-07-06T10:51:07;3.60;;;0.93;;
20695;SDS011;10507;52.754;13.040;2022-07-06T10:53:41;3.50;;;0.82;;
20695;SDS011;10507;52.754;13.040;2022-07-06T10:56:17;3.25;;;0.60;;
20695;SDS011;10507;52.754;13.040;2022-07-06T10:59:19;4.13;;;0.93;;
20695;SDS011;10507;52.754;13.040;2022-07-06T11:02:16;3.70;;;0.60;;
20695;SDS011;10507;52.754;13.040;2022-07-06T11:04:47;2.97;;;0.70;;
20695;SDS011;10507;52.754;13.040;2022-07-06T11:07:24;1.92;;;0.50;;
20695;SDS011;10507;52.754;13.040;2022-07-06T11:10:03;4.65;;;0.63;;
20695;SDS011;10507;52.754;13.040;2022-07-06T11:12:44;3.45;;;0.50;;
20695;SDS011;10507;52.754;13.040;2022-07-06T11:18:23;1.90;;;0.60;;
20695;SDS011;10507;52.754;13.040;2022-07-06T11:21:15;3.95;;;0.50;;
20695;SDS011;10507;52.754;13.040;2022-07-06T11:23:51;8.27;;;0.90;;
20695;SDS011;10507;52.754;13.040;2022-07-06T11:26:22;3.03;;;0.50;;
20695;SDS011;10507;52.754;13.040;2022-07-06T11:28:55;1.95;;;0.47;;
20695;SDS011;10507;52.754;13.040;2022-07-06T11:31:29;2.03;;;0.60;;
20695;SDS011;10507;52.754;13.040;2022-07-06T11:34:04;2.53;;;0.57;;
20695;SDS011;10507;52.754;13.040;2022-07-06T11:36:38;0.95;;;0.55;;
20695;SDS011;10507;52.754;13.040;2022-07-06T11:39:13;5.40;;;0.82;;
20695;SDS011;10507;52.754;13.040;2022-07-06T11:41:44;1.75;;;0.40;;
20695;SDS011;10507;52.754;13.040;2022-07-06T11:44:17;2.78;;;0.50;;
20695;SDS011;10507;52.754;13.040;2022-07-06T11:46:49;1.98;;;0.30;;
20695;SDS011;10507;52.754;13.040;2022-07-06T11:49:23;1.60;;;0.40;;
20695;SDS011;10507;52.754;13.040;2022-07-06T11:51:54;2.72;;;0.30;;
20695;SDS011;10507;52.754;13.040;2022-07-06T11:54:27;2.15;;;0.28;;
20695;SDS011;10507;52.754;13.040;2022-07-06T11:57:06;0.60;;;0.20;;
20695;SDS011;10507;52.754;13.040;2022-07-06T11:59:52;2.75;;;0.45;;
20695;SDS011;10507;52.754;13.040;2022-07-06T12:02:23;1.13;;;0.47;;
20695;SDS011;10507;52.754;13.040;2022-07-06T12:04:57;0.95;;;0.30;;
20695;SDS011;10507;52.754;13.040;2022-07-06T12:07:37;3.80;;;0.30;;
20695;SDS011;10507;52.754;13.040;2022-07-06T12:10:06;1.85;;;0.43;;
20695;SDS011;10507;52.754;13.040;2022-07-06T12:12:37;1.75;;;0.45;;
20695;SDS011;10507;52.754;13.040;2022-07-06T12:15:06;2.22;;;0.30;;
20695;SDS011;10507;52.754;13.040;2022-07-06T12:17:35;1.35;;;0.30;;
20695;SDS011;10507;52.754;13.040;2022-07-06T12:20:11;2.60;;;0.60;;
20695;SDS011;10507;52.754;13.040;2022-07-06T12:22:39;1.92;;;0.40;;
20695;SDS011;10507;52.754;13.040;2022-07-06T12:25:07;3.90;;;0.50;;
20695;SDS011;10507;52.754;13.040;2022-07-06T12:27:36;2.22;;;0.57;;
20695;SDS011;10507;52.754;13.040;2022-07-06T12:30:08;0.77;;;0.20;;
20695;SDS011;10507;52.754;13.040;2022-07-06T12:32:37;0.63;;;0.32;;
20695;SDS011;10507;52.754;13.040;2022-07-06T12:35:05;0.73;;;0.30;;
20695;SDS011;10507;52.754;13.040;2022-07-06T12:37:37;0.38;;;0.20;;
20695;SDS011;10507;52.754;13.040;2022-07-06T12:40:11;0.65;;;0.30;;
20695;SDS011;10507;52.754;13.040;2022-07-06T12:42:45;0.57;;;0.32;;
20695;SDS011;10507;52.754;13.040;2022-07-06T12:45:26;0.52;;;0.20;;
20695;SDS011;10507;52.754;13.040;2022-07-06T12:47:58;0.32;;;0.20;;
20695;SDS011;10507;52.754;13.040;2022-07-06T12:50:31;0.70;;;0.30;;
20695;SDS011;10507;52.754;13.040;2022-07-06T12:53:04;2.60;;;0.52;;
20695;SDS011;10507;52.754;13.040;2022-07-06T12:55:34;1.85;;;0.38;;
20695;SDS011;10507;52.754;13.040;2022-07-06T12:58:03;0.68;;;0.20;;
20695;SDS011;10507;52.754;13.040;2022-07-06T13:00:33;3.55;;;0.40;;
20695;SDS011;10507;52.754;13.040;2022-07-06T13:03:17;3.00;;;0.70;;
20695;SDS011;10507;52.754;13.040;2022-07-06T13:05:51;1.48;;;0.40;;
20695;SDS011;10507;52.754;13.040;2022-07-06T13:08:32;2.08;;;0.52;;
20695;SDS011;10507;52.754;13.040;2022-07-06T13:11:00;1.23;;;0.30;;
20695;SDS011;10507;52.754;13.040;2022-07-06T13:13:30;4.20;;;0.57;;
20695;SDS011;10507;52.754;13.040;2022-07-06T13:16:01;3.75;;;0.30;;
20695;SDS011;10507;52.754;13.040;2022-07-06T13:18:31;5.38;;;0.40;;
20695;SDS011;10507;52.754;13.040;2022-07-06T13:21:00;1.17;;;0.30;;
20695;SDS011;10507;52.754;13.040;2022-07-06T13:23:33;3.13;;;0.52;;
20695;SDS011;10507;52.754;13.040;2022-07-06T13:26:02;1.23;;;0.35;;
20695;SDS011;10507;52.754;13.040;2022-07-06T13:28:31;1.17;;;0.40;;
20695;SDS011;10507;52.754;13.040;2022-07-06T13:30:59;1.88;;;0.50;;
20695;SDS011;10507;52.754;13.040;2022-07-06T13:33:37;0.70;;;0.20;;
20695;SDS011;10507;52.754;13.040;2022-07-06T13:36:07;1.50;;;0.32;;
20695;SDS011;10507;52.754;13.040;2022-07-06T13:38:42;2.83;;;0.50;;
20695;SDS011;10507;52.754;13.040;2022-07-06T13:41:20;0.90;;;0.40;;
20695;SDS011;10507;52.754;13.040;2022-07-06T13:43:53;1.50;;;0.57;;
20695;SDS011;10507;52.754;13.040;2022-07-06T13:46:26;1.10;;;0.30;;
20695;SDS011;10507;52.754;13.040;2022-07-06T13:48:58;3.40;;;0.50;;
20695;SDS011;10507;52.754;13.040;2022-07-06T13:51:34;2.00;;;0.50;;
20695;SDS011;10507;52.754;13.040;2022-07-06T13:54:11;2.47;;;0.70;;
20695;SDS011;10507;52.754;13.040;2022-07-06T13:56:46;7.32;;;0.57;;
20695;SDS011;10507;52.754;13.040;2022-07-06T13:59:17;1.13;;;0.50;;
20695;SDS011;10507;52.754;13.040;2022-07-06T14:02:02;1.42;;;0.30;;
20695;SDS011;10507;52.754;13.040;2022-07-06T14:04:33;2.80;;;0.82;;
20695;SDS011;10507;52.754;13.040;2022-07-06T14:07:01;4.95;;;0.50;;
20695;SDS011;10507;52.754;13.040;2022-07-06T14:12:21;2.67;;;0.50;;
20695;SDS011;10507;52.754;13.040;2022-07-06T14:14:52;2.70;;;0.47;;
20695;SDS011;10507;52.754;13.040;2022-07-06T14:17:31;2.15;;;0.77;;
20695;SDS011;10507;52.754;13.040;2022-07-06T14:20:05;2.10;;;0.65;;
20695;SDS011;10507;52.754;13.040;2022-07-06T14:22:52;3.17;;;0.77;;
20695;SDS011;10507;52.754;13.040;2022-07-06T14:25:22;2.53;;;0.63;;
20695;SDS011;10507;52.754;13.040;2022-07-06T14:27:53;3.03;;;0.63;;
20695;SDS011;10507;52.754;13.040;2022-07-06T14:30:23;0.98;;;0.50;;
20695;SDS011;10507;52.754;13.040;2022-07-06T14:32:55;1.98;;;0.77;;
20695;SDS011;10507;52.754;13.040;2022-07-06T14:35:28;3.03;;;0.77;;
20695;SDS011;10507;52.754;13.040;2022-07-06T14:38:00;3.78;;;0.80;;
20695;SDS011;10507;52.754;13.040;2022-07-06T14:40:33;2.45;;;0.50;;
20695;SDS011;10507;52.754;13.040;2022-07-06T14:43:02;3.60;;;0.52;;
20695;SDS011;10507;52.754;13.040;2022-07-06T14:45:34;2.17;;;0.98;;
20695;SDS011;10507;52.754;13.040;2022-07-06T14:48:05;2.28;;;0.50;;
20695;SDS011;10507;52.754;13.040;2022-07-06T14:50:47;1.52;;;0.40;;
20695;SDS011;10507;52.754;13.040;2022-07-06T14:53:17;3.65;;;0.50;;
20695;SDS011;10507;52.754;13.040;2022-07-06T14:55:53;4.75;;;1.10;;
20695;SDS011;10507;52.754;13.040;2022-07-06T14:58:30;2.55;;;0.55;;
20695;SDS011;10507;52.754;13.040;2022-07-06T15:01:04;3.95;;;0.50;;
20695;SDS011;10507;52.754;13.040;2022-07-06T15:03:32;3.92;;;0.50;;
20695;SDS011;10507;52.754;13.040;2022-07-06T15:06:05;3.45;;;0.60;;
20695;SDS011;10507;52.754;13.040;2022-07-06T15:08:58;1.25;;;0.52;;
20695;SDS011;10507;52.754;13.040;2022-07-06T15:11:38;3.15;;;0.50;;
20695;SDS011;10507;52.754;13.040;2022-07-06T15:14:14;1.55;;;0.40;;
20695;SDS011;10507;52.754;13.040;2022-07-06T15:16:52;1.00;;;0.40;;